sensor_id;sensor_type;location;lat;lon;timestamp;P1;durP1;ratioP1;P2;durP2;ratioP2
30080;SDS011;16902;50.816;12.828;2023-04-06T00:03:42;7.80;;;7.03;;
30080;SDS011;16902;50.816;12.828;2023-04-06T00:08:44;9.35;;;7.03;;
30080;SDS011;16902;50.816;12.828;2023-04-06T00:13:46;7.32;;;6.60;;
30080;SDS011;16902;50.816;12.828;2023-04-06T00:18:48;7.72;;;6.97;;
30080;SDS011;16902;50.816;12.828;2023-04-06T00:23:50;7.88;;;7.18;;
30080;SDS011;16902;50.816;12.828;2023-04-06T00:28:52;7.50;;;6.80;;
30080;SDS011;16902;50.816;12.828;2023-04-06T00:33:54;7.65;;;6.93;;
30080;SDS011;16902;50.816;12.828;2023-04-06T00:38:56;7.75;;;7.03;;
30080;SDS011;16902;50.816;12.828;2023-04-06T00:43:58;7.50;;;6.80;;
30080;SDS011;16902;50.816;12.828;2023-04-06T00:49:00;8.13;;;7.15;;
30080;SDS011;16902;50.816;12.828;2023-04-06T00:54:02;8.07;;;6.97;;
30080;SDS011;16902;50.816;12.828;2023-04-06T00:59:06;7.55;;;6.80;;
30080;SDS011;16902;50.816;12.828;2023-04-06T01:04:09;7.60;;;6.82;;
30080;SDS011;16902;50.816;12.828;2023-04-06T01:09:15;7.70;;;6.85;;
30080;SDS011;16902;50.816;12.828;2023-04-06T01:14:18;7.70;;;7.00;;
30080;SDS011;16902;50.816;12.828;2023-04-06T01:19:27;8.60;;;7.18;;
30080;SDS011;16902;50.816;12.828;2023-04-06T01:24:30;7.13;;;6.53;;
30080;SDS011;16902;50.816;12.828;2023-04-06T01:30:10;7.40;;;6.45;;
30080;SDS011;16902;50.816;12.828;2023-04-06T01:35:25;7.38;;;6.57;;
30080;SDS011;16902;50.816;12.828;2023-04-06T01:40:43;7.80;;;7.00;;
30080;SDS011;16902;50.816;12.828;2023-04-06T01:45:46;7.03;;;6.28;;
30080;SDS011;16902;50.816;12.828;2023-04-06T01:50:53;6.60;;;6.05;;
30080;SDS011;16902;50.816;12.828;2023-04-06T01:56:01;8.07;;;6.90;;
30080;SDS011;16902;50.816;12.828;2023-04-06T02:01:07;8.63;;;6.75;;
30080;SDS011;16902;50.816;12.828;2023-04-06T02:06:22;7.47;;;6.78;;
30080;SDS011;16902;50.816;12.828;2023-04-06T02:11:24;7.88;;;7.03;;
30080;SDS011;16902;50.816;12.828;2023-04-06T02:16:29;8.05;;;7.13;;
30080;SDS011;16902;50.816;12.828;2023-04-06T02:21:31;7.35;;;6.70;;
30080;SDS011;16902;50.816;12.828;2023-04-06T02:26:33;6.97;;;6.27;;
30080;SDS011;16902;50.816;12.828;2023-04-06T02:31:35;7.75;;;6.93;;
30080;SDS011;16902;50.816;12.828;2023-04-06T02:36:38;8.07;;;6.80;;
30080;SDS011;16902;50.816;12.828;2023-04-06T02:41:41;7.25;;;6.55;;
30080;SDS011;16902;50.816;12.828;2023-04-06T02:46:44;9.30;;;7.28;;
30080;SDS011;16902;50.816;12.828;2023-04-06T02:51:47;7.68;;;6.65;;
30080;SDS011;16902;50.816;12.828;2023-04-06T02:56:56;11.40;;;7.93;;
30080;SDS011;16902;50.816;12.828;2023-04-06T03:02:07;8.00;;;7.15;;
30080;SDS011;16902;50.816;12.828;2023-04-06T03:07:09;7.70;;;6.90;;
30080;SDS011;16902;50.816;12.828;2023-04-06T03:12:13;8.30;;;7.22;;
30080;SDS011;16902;50.816;12.828;2023-04-06T03:17:34;8.35;;;6.95;;
30080;SDS011;16902;50.816;12.828;2023-04-06T03:22:41;8.85;;;7.13;;
30080;SDS011;16902;50.816;12.828;2023-04-06T03:27:46;8.20;;;7.05;;
30080;SDS011;16902;50.816;12.828;2023-04-06T03:32:52;8.43;;;6.87;;
30080;SDS011;16902;50.816;12.828;2023-04-06T03:37:56;10.27;;;7.65;;
30080;SDS011;16902;50.816;12.828;2023-04-06T03:42:59;8.80;;;7.80;;
30080;SDS011;16902;50.816;12.828;2023-04-06T03:48:02;8.40;;;7.60;;
30080;SDS011;16902;50.816;12.828;2023-04-06T03:53:09;8.85;;;7.90;;
30080;SDS011;16902;50.816;12.828;2023-04-06T03:58:10;10.70;;;7.73;;
30080;SDS011;16902;50.816;12.828;2023-04-06T04:03:12;8.83;;;7.80;;
30080;SDS011;16902;50.816;12.828;2023-04-06T04:08:16;9.07;;;7.78;;
30080;SDS011;16902;50.816;12.828;2023-04-06T04:13:18;10.73;;;7.83;;
30080;SDS011;16902;50.816;12.828;2023-04-06T04:18:23;12.38;;;8.00;;
30080;SDS011;16902;50.816;12.828;2023-04-06T04:23:25;10.63;;;7.97;;
30080;SDS011;16902;50.816;12.828;2023-04-06T04:28:28;10.90;;;8.47;;
30080;SDS011;16902;50.816;12.828;2023-04-06T04:33:30;9.07;;;7.80;;
30080;SDS011;16902;50.816;12.828;2023-04-06T04:38:35;9.35;;;8.15;;
30080;SDS011;16902;50.816;12.828;2023-04-06T04:43:37;9.30;;;8.30;;
30080;SDS011;16902;50.816;12.828;2023-04-06T04:48:40;12.13;;;8.57;;
30080;SDS011;16902;50.816;12.828;2023-04-06T04:53:42;11.73;;;9.23;;
30080;SDS011;16902;50.816;12.828;2023-04-06T04:58:53;9.73;;;8.83;;
30080;SDS011;16902;50.816;12.828;2023-04-06T05:03:57;10.60;;;8.33;;
30080;SDS011;16902;50.816;12.828;2023-04-06T05:08:59;10.53;;;9.43;;
30080;SDS011;16902;50.816;12.828;2023-04-06T05:14:04;11.13;;;10.00;;
30080;SDS011;16902;50.816;12.828;2023-04-06T05:19:07;16.87;;;9.93;;
30080;SDS011;16902;50.816;12.828;2023-04-06T05:24:15;10.53;;;9.23;;
30080;SDS011;16902;50.816;12.828;2023-04-06T05:29:20;11.03;;;9.93;;
30080;SDS011;16902;50.816;12.828;2023-04-06T05:34:23;11.63;;;9.83;;
30080;SDS011;16902;50.816;12.828;2023-04-06T05:39:25;10.73;;;9.60;;
30080;SDS011;16902;50.816;12.828;2023-04-06T05:44:28;10.50;;;9.50;;
30080;SDS011;16902;50.816;12.828;2023-04-06T05:49:39;15.90;;;12.95;;
30080;SDS011;16902;50.816;12.828;2023-04-06T05:54:49;14.63;;;12.32;;
30080;SDS011;16902;50.816;12.828;2023-04-06T05:59:51;16.75;;;13.38;;
30080;SDS011;16902;50.816;12.828;2023-04-06T06:04:55;15.05;;;13.43;;
30080;SDS011;16902;50.816;12.828;2023-04-06T06:10:00;14.02;;;12.60;;
30080;SDS011;16902;50.816;12.828;2023-04-06T06:15:07;14.85;;;11.65;;
30080;SDS011;16902;50.816;12.828;2023-04-06T06:20:14;12.95;;;11.60;;
30080;SDS011;16902;50.816;12.828;2023-04-06T06:25:17;13.40;;;11.68;;
30080;SDS011;16902;50.816;12.828;2023-04-06T06:30:21;17.58;;;14.52;;
30080;SDS011;16902;50.816;12.828;2023-04-06T06:35:25;19.98;;;15.75;;
30080;SDS011;16902;50.816;12.828;2023-04-06T06:40:27;17.98;;;14.95;;
30080;SDS011;16902;50.816;12.828;2023-04-06T06:45:30;16.98;;;13.95;;
30080;SDS011;16902;50.816;12.828;2023-04-06T06:50:32;15.82;;;14.07;;
30080;SDS011;16902;50.816;12.828;2023-04-06T06:55:34;14.63;;;12.20;;
30080;SDS011;16902;50.816;12.828;2023-04-06T07:00:36;14.65;;;13.25;;
30080;SDS011;16902;50.816;12.828;2023-04-06T07:05:39;14.65;;;13.45;;
30080;SDS011;16902;50.816;12.828;2023-04-06T07:10:46;17.77;;;16.27;;
30080;SDS011;16902;50.816;12.828;2023-04-06T07:15:49;19.80;;;18.15;;
30080;SDS011;16902;50.816;12.828;2023-04-06T07:20:52;19.73;;;18.23;;
30080;SDS011;16902;50.816;12.828;2023-04-06T07:25:53;19.05;;;17.67;;
30080;SDS011;16902;50.816;12.828;2023-04-06T07:30:56;21.38;;;19.85;;
30080;SDS011;16902;50.816;12.828;2023-04-06T07:35:58;20.42;;;18.92;;
30080;SDS011;16902;50.816;12.828;2023-04-06T07:41:00;20.10;;;18.90;;
30080;SDS011;16902;50.816;12.828;2023-04-06T07:46:05;22.02;;;20.52;;
30080;SDS011;16902;50.816;12.828;2023-04-06T07:51:07;21.52;;;20.13;;
30080;SDS011;16902;50.816;12.828;2023-04-06T07:56:13;19.95;;;18.73;;
30080;SDS011;16902;50.816;12.828;2023-04-06T08:01:16;20.40;;;19.20;;
30080;SDS011;16902;50.816;12.828;2023-04-06T08:06:18;21.25;;;19.85;;
30080;SDS011;16902;50.816;12.828;2023-04-06T08:11:20;21.50;;;19.75;;
30080;SDS011;16902;50.816;12.828;2023-04-06T08:16:23;22.52;;;20.92;;
30080;SDS011;16902;50.816;12.828;2023-04-06T08:21:25;21.42;;;19.80;;
30080;SDS011;16902;50.816;12.828;2023-04-06T08:26:27;20.77;;;19.42;;
30080;SDS011;16902;50.816;12.828;2023-04-06T08:31:29;20.75;;;19.35;;
30080;SDS011;16902;50.816;12.828;2023-04-06T08:36:32;22.42;;;20.90;;
30080;SDS011;16902;50.816;12.828;2023-04-06T08:41:34;21.70;;;20.25;;
30080;SDS011;16902;50.816;12.828;2023-04-06T08:46:36;21.75;;;20.20;;
30080;SDS011;16902;50.816;12.828;2023-04-06T08:51:37;20.52;;;19.27;;
30080;SDS011;16902;50.816;12.828;2023-04-06T08:56:40;21.80;;;20.40;;
30080;SDS011;16902;50.816;12.828;2023-04-06T09:01:42;21.00;;;19.60;;
30080;SDS011;16902;50.816;12.828;2023-04-06T09:06:47;20.50;;;19.20;;
30080;SDS011;16902;50.816;12.828;2023-04-06T09:11:49;20.15;;;18.85;;
30080;SDS011;16902;50.816;12.828;2023-04-06T09:16:52;20.45;;;19.17;;
30080;SDS011;16902;50.816;12.828;2023-04-06T09:22:01;21.13;;;19.73;;
30080;SDS011;16902;50.816;12.828;2023-04-06T09:27:08;20.50;;;19.20;;
30080;SDS011;16902;50.816;12.828;2023-04-06T09:32:11;19.75;;;18.52;;
30080;SDS011;16902;50.816;12.828;2023-04-06T09:37:17;21.33;;;19.90;;
30080;SDS011;16902;50.816;12.828;2023-04-06T09:42:24;20.45;;;19.15;;
30080;SDS011;16902;50.816;12.828;2023-04-06T09:47:26;21.00;;;19.60;;
30080;SDS011;16902;50.816;12.828;2023-04-06T09:52:37;21.30;;;19.83;;
30080;SDS011;16902;50.816;12.828;2023-04-06T09:57:50;20.20;;;19.00;;
30080;SDS011;16902;50.816;12.828;2023-04-06T10:08:15;20.20;;;18.90;;
30080;SDS011;16902;50.816;12.828;2023-04-06T10:13:18;21.48;;;20.05;;
30080;SDS011;16902;50.816;12.828;2023-04-06T10:18:26;20.80;;;19.52;;
30080;SDS011;16902;50.816;12.828;2023-04-06T10:24:43;21.48;;;20.20;;
30080;SDS011;16902;50.816;12.828;2023-04-06T10:29:47;21.77;;;20.27;;
30080;SDS011;16902;50.816;12.828;2023-04-06T10:35:16;21.10;;;19.77;;
30080;SDS011;16902;50.816;12.828;2023-04-06T10:40:22;19.75;;;18.63;;
30080;SDS011;16902;50.816;12.828;2023-04-06T10:45:57;21.25;;;19.90;;
30080;SDS011;16902;50.816;12.828;2023-04-06T10:51:50;19.83;;;18.73;;
30080;SDS011;16902;50.816;12.828;2023-04-06T10:56:51;20.42;;;19.17;;
30080;SDS011;16902;50.816;12.828;2023-04-06T11:01:53;20.75;;;19.45;;
30080;SDS011;16902;50.816;12.828;2023-04-06T11:06:57;20.02;;;18.83;;
30080;SDS011;16902;50.816;12.828;2023-04-06T11:18:25;20.75;;;19.55;;
30080;SDS011;16902;50.816;12.828;2023-04-06T11:30:39;20.15;;;18.90;;
30080;SDS011;16902;50.816;12.828;2023-04-06T11:36:04;20.60;;;19.30;;
30080;SDS011;16902;50.816;12.828;2023-04-06T11:41:12;20.52;;;19.23;;
30080;SDS011;16902;50.816;12.828;2023-04-06T11:46:17;20.48;;;19.30;;
30080;SDS011;16902;50.816;12.828;2023-04-06T11:51:22;19.67;;;18.70;;
30080;SDS011;16902;50.816;12.828;2023-04-06T11:56:32;20.70;;;19.40;;
30080;SDS011;16902;50.816;12.828;2023-04-06T12:01:34;19.90;;;18.90;;
30080;SDS011;16902;50.816;12.828;2023-04-06T12:06:50;19.92;;;18.92;;
30080;SDS011;16902;50.816;12.828;2023-04-06T12:11:52;20.30;;;19.20;;
30080;SDS011;16902;50.816;12.828;2023-04-06T12:16:54;20.30;;;19.20;;
30080;SDS011;16902;50.816;12.828;2023-04-06T12:21:56;20.63;;;19.50;;
30080;SDS011;16902;50.816;12.828;2023-04-06T12:27:00;20.17;;;19.08;;
30080;SDS011;16902;50.816;12.828;2023-04-06T12:32:11;20.48;;;19.27;;
30080;SDS011;16902;50.816;12.828;2023-04-06T12:37:13;19.92;;;18.83;;
30080;SDS011;16902;50.816;12.828;2023-04-06T12:42:14;20.52;;;19.35;;
30080;SDS011;16902;50.816;12.828;2023-04-06T12:47:17;19.67;;;18.65;;
30080;SDS011;16902;50.816;12.828;2023-04-06T12:52:19;19.33;;;18.27;;
30080;SDS011;16902;50.816;12.828;2023-04-06T12:57:21;19.88;;;18.88;;
30080;SDS011;16902;50.816;12.828;2023-04-06T13:02:23;19.60;;;18.40;;
30080;SDS011;16902;50.816;12.828;2023-04-06T13:07:28;20.23;;;19.13;;
30080;SDS011;16902;50.816;12.828;2023-04-06T13:12:30;19.05;;;17.83;;
30080;SDS011;16902;50.816;12.828;2023-04-06T13:17:31;20.33;;;19.23;;
30080;SDS011;16902;50.816;12.828;2023-04-06T13:22:33;20.85;;;19.65;;
30080;SDS011;16902;50.816;12.828;2023-04-06T13:27:35;21.05;;;19.85;;
30080;SDS011;16902;50.816;12.828;2023-04-06T13:32:37;20.20;;;19.10;;
30080;SDS011;16902;50.816;12.828;2023-04-06T13:37:38;20.15;;;19.08;;
30080;SDS011;16902;50.816;12.828;2023-04-06T13:42:40;19.42;;;18.40;;
30080;SDS011;16902;50.816;12.828;2023-04-06T13:47:45;20.10;;;19.00;;
30080;SDS011;16902;50.816;12.828;2023-04-06T13:52:47;19.00;;;18.00;;
30080;SDS011;16902;50.816;12.828;2023-04-06T13:57:50;21.13;;;19.83;;
30080;SDS011;16902;50.816;12.828;2023-04-06T14:02:55;20.45;;;19.30;;
30080;SDS011;16902;50.816;12.828;2023-04-06T14:07:57;20.17;;;19.17;;
30080;SDS011;16902;50.816;12.828;2023-04-06T14:12:58;20.63;;;19.48;;
30080;SDS011;16902;50.816;12.828;2023-04-06T14:18:00;21.70;;;20.50;;
30080;SDS011;16902;50.816;12.828;2023-04-06T14:23:03;20.15;;;19.10;;
30080;SDS011;16902;50.816;12.828;2023-04-06T14:28:07;20.27;;;19.08;;
30080;SDS011;16902;50.816;12.828;2023-04-06T14:33:08;20.55;;;19.35;;
30080;SDS011;16902;50.816;12.828;2023-04-06T14:38:10;20.10;;;19.10;;
30080;SDS011;16902;50.816;12.828;2023-04-06T14:43:12;21.08;;;19.85;;
30080;SDS011;16902;50.816;12.828;2023-04-06T14:48:13;19.95;;;18.77;;
30080;SDS011;16902;50.816;12.828;2023-04-06T14:53:17;19.50;;;18.50;;
30080;SDS011;16902;50.816;12.828;2023-04-06T14:58:19;19.20;;;18.20;;
30080;SDS011;16902;50.816;12.828;2023-04-06T15:03:21;21.80;;;20.50;;
30080;SDS011;16902;50.816;12.828;2023-04-06T15:08:23;21.23;;;20.02;;
30080;SDS011;16902;50.816;12.828;2023-04-06T15:13:25;21.98;;;20.75;;
30080;SDS011;16902;50.816;12.828;2023-04-06T15:18:28;22.25;;;20.95;;
30080;SDS011;16902;50.816;12.828;2023-04-06T15:23:29;21.30;;;20.10;;
30080;SDS011;16902;50.816;12.828;2023-04-06T15:28:31;23.42;;;22.13;;
30080;SDS011;16902;50.816;12.828;2023-04-06T15:33:33;23.38;;;21.98;;
30080;SDS011;16902;50.816;12.828;2023-04-06T15:38:34;22.15;;;20.75;;
30080;SDS011;16902;50.816;12.828;2023-04-06T15:43:36;22.98;;;21.63;;
30080;SDS011;16902;50.816;12.828;2023-04-06T15:48:40;22.17;;;20.85;;
30080;SDS011;16902;50.816;12.828;2023-04-06T15:53:42;23.33;;;21.92;;
30080;SDS011;16902;50.816;12.828;2023-04-06T15:58:44;23.88;;;22.38;;
30080;SDS011;16902;50.816;12.828;2023-04-06T16:03:46;24.02;;;22.52;;
30080;SDS011;16902;50.816;12.828;2023-04-06T16:08:48;24.08;;;22.58;;
30080;SDS011;16902;50.816;12.828;2023-04-06T16:13:50;23.08;;;21.58;;
30080;SDS011;16902;50.816;12.828;2023-04-06T16:18:55;22.95;;;21.55;;
30080;SDS011;16902;50.816;12.828;2023-04-06T16:23:57;23.02;;;21.63;;
30080;SDS011;16902;50.816;12.828;2023-04-06T16:29:00;23.60;;;21.75;;
30080;SDS011;16902;50.816;12.828;2023-04-06T16:34:02;23.95;;;22.25;;
30080;SDS011;16902;50.816;12.828;2023-04-06T16:39:04;24.30;;;22.50;;
30080;SDS011;16902;50.816;12.828;2023-04-06T16:44:05;23.60;;;22.00;;
30080;SDS011;16902;50.816;12.828;2023-04-06T16:49:07;23.40;;;21.80;;
30080;SDS011;16902;50.816;12.828;2023-04-06T16:54:09;23.48;;;21.88;;
30080;SDS011;16902;50.816;12.828;2023-04-06T16:59:11;23.90;;;22.08;;
30080;SDS011;16902;50.816;12.828;2023-04-06T17:04:12;22.95;;;21.38;;
30080;SDS011;16902;50.816;12.828;2023-04-06T17:09:14;23.92;;;22.25;;
30080;SDS011;16902;50.816;12.828;2023-04-06T17:14:16;23.35;;;21.65;;
30080;SDS011;16902;50.816;12.828;2023-04-06T17:19:19;24.60;;;22.92;;
30080;SDS011;16902;50.816;12.828;2023-04-06T17:24:20;25.10;;;23.33;;
30080;SDS011;16902;50.816;12.828;2023-04-06T17:29:22;24.95;;;23.10;;
30080;SDS011;16902;50.816;12.828;2023-04-06T17:34:24;25.10;;;23.30;;
30080;SDS011;16902;50.816;12.828;2023-04-06T17:39:26;24.45;;;22.85;;
30080;SDS011;16902;50.816;12.828;2023-04-06T17:44:28;24.40;;;22.77;;
30080;SDS011;16902;50.816;12.828;2023-04-06T17:49:29;27.23;;;25.23;;
30080;SDS011;16902;50.816;12.828;2023-04-06T17:54:32;25.42;;;23.63;;
30080;SDS011;16902;50.816;12.828;2023-04-06T17:59:37;26.70;;;24.80;;
30080;SDS011;16902;50.816;12.828;2023-04-06T18:04:39;26.25;;;24.25;;
30080;SDS011;16902;50.816;12.828;2023-04-06T18:09:44;25.85;;;23.95;;
30080;SDS011;16902;50.816;12.828;2023-04-06T18:14:46;26.15;;;23.90;;
30080;SDS011;16902;50.816;12.828;2023-04-06T18:19:47;24.13;;;22.42;;
30080;SDS011;16902;50.816;12.828;2023-04-06T18:24:49;23.98;;;22.17;;
30080;SDS011;16902;50.816;12.828;2023-04-06T18:29:51;24.98;;;23.17;;
30080;SDS011;16902;50.816;12.828;2023-04-06T18:34:53;23.73;;;21.98;;
30080;SDS011;16902;50.816;12.828;2023-04-06T18:39:57;24.05;;;22.25;;
30080;SDS011;16902;50.816;12.828;2023-04-06T18:44:59;24.92;;;22.98;;
30080;SDS011;16902;50.816;12.828;2023-04-06T18:50:01;21.95;;;20.40;;
30080;SDS011;16902;50.816;12.828;2023-04-06T18:55:02;24.77;;;22.92;;
30080;SDS011;16902;50.816;12.828;2023-04-06T19:00:05;23.83;;;21.92;;
30080;SDS011;16902;50.816;12.828;2023-04-06T19:05:07;23.55;;;21.65;;
30080;SDS011;16902;50.816;12.828;2023-04-06T19:10:11;22.60;;;20.98;;
30080;SDS011;16902;50.816;12.828;2023-04-06T19:15:12;24.48;;;22.67;;
30080;SDS011;16902;50.816;12.828;2023-04-06T19:20:15;23.30;;;21.40;;
30080;SDS011;16902;50.816;12.828;2023-04-06T19:25:17;23.90;;;21.90;;
30080;SDS011;16902;50.816;12.828;2023-04-06T19:30:19;22.65;;;20.88;;
30080;SDS011;16902;50.816;12.828;2023-04-06T19:35:21;21.50;;;19.70;;
30080;SDS011;16902;50.816;12.828;2023-04-06T19:40:23;20.60;;;18.75;;
30080;SDS011;16902;50.816;12.828;2023-04-06T19:45:24;20.50;;;18.70;;
30080;SDS011;16902;50.816;12.828;2023-04-06T19:50:26;20.85;;;19.25;;
30080;SDS011;16902;50.816;12.828;2023-04-06T19:55:28;21.67;;;19.73;;
30080;SDS011;16902;50.816;12.828;2023-04-06T20:00:31;18.92;;;17.20;;
30080;SDS011;16902;50.816;12.828;2023-04-06T20:05:33;19.50;;;17.65;;
30080;SDS011;16902;50.816;12.828;2023-04-06T20:10:35;18.80;;;17.30;;
30080;SDS011;16902;50.816;12.828;2023-04-06T20:15:37;20.02;;;18.35;;
30080;SDS011;16902;50.816;12.828;2023-04-06T20:20:39;20.52;;;18.50;;
30080;SDS011;16902;50.816;12.828;2023-04-06T20:25:41;18.13;;;16.38;;
30080;SDS011;16902;50.816;12.828;2023-04-06T20:30:43;20.52;;;18.33;;
30080;SDS011;16902;50.816;12.828;2023-04-06T20:35:44;19.58;;;17.60;;
30080;SDS011;16902;50.816;12.828;2023-04-06T20:40:46;19.35;;;17.63;;
30080;SDS011;16902;50.816;12.828;2023-04-06T20:45:49;20.50;;;17.13;;
30080;SDS011;16902;50.816;12.828;2023-04-06T20:50:58;19.23;;;17.33;;
30080;SDS011;16902;50.816;12.828;2023-04-06T20:56:00;18.90;;;17.10;;
30080;SDS011;16902;50.816;12.828;2023-04-06T21:01:12;21.23;;;18.57;;
30080;SDS011;16902;50.816;12.828;2023-04-06T21:06:15;21.73;;;17.07;;
30080;SDS011;16902;50.816;12.828;2023-04-06T21:11:17;19.60;;;16.90;;
30080;SDS011;16902;50.816;12.828;2023-04-06T21:16:19;18.07;;;16.27;;
30080;SDS011;16902;50.816;12.828;2023-04-06T21:21:21;18.40;;;16.50;;
30080;SDS011;16902;50.816;12.828;2023-04-06T21:26:23;17.17;;;15.57;;
30080;SDS011;16902;50.816;12.828;2023-04-06T21:31:25;17.10;;;15.53;;
30080;SDS011;16902;50.816;12.828;2023-04-06T21:36:27;17.23;;;15.52;;
30080;SDS011;16902;50.816;12.828;2023-04-06T21:41:29;16.67;;;15.00;;
30080;SDS011;16902;50.816;12.828;2023-04-06T21:46:31;17.50;;;15.33;;
30080;SDS011;16902;50.816;12.828;2023-04-06T21:51:33;16.40;;;14.63;;
30080;SDS011;16902;50.816;12.828;2023-04-06T21:56:35;16.57;;;14.87;;
30080;SDS011;16902;50.816;12.828;2023-04-06T22:01:37;15.93;;;13.80;;
30080;SDS011;16902;50.816;12.828;2023-04-06T22:06:39;20.87;;;14.20;;
30080;SDS011;16902;50.816;12.828;2023-04-06T22:11:42;18.07;;;14.27;;
30080;SDS011;16902;50.816;12.828;2023-04-06T22:16:44;17.60;;;14.00;;
30080;SDS011;16902;50.816;12.828;2023-04-06T22:21:46;15.30;;;13.53;;
30080;SDS011;16902;50.816;12.828;2023-04-06T22:26:48;16.67;;;14.53;;
30080;SDS011;16902;50.816;12.828;2023-04-06T22:31:50;19.40;;;15.20;;
30080;SDS011;16902;50.816;12.828;2023-04-06T22:36:52;15.27;;;13.07;;
30080;SDS011;16902;50.816;12.828;2023-04-06T22:41:54;16.17;;;13.17;;
30080;SDS011;16902;50.816;12.828;2023-04-06T22:46:55;17.73;;;13.37;;
30080;SDS011;16902;50.816;12.828;2023-04-06T22:51:57;17.03;;;13.53;;
30080;SDS011;16902;50.816;12.828;2023-04-06T22:56:59;16.37;;;13.20;;
30080;SDS011;16902;50.816;12.828;2023-04-06T23:02:01;17.50;;;13.97;;
30080;SDS011;16902;50.816;12.828;2023-04-06T23:07:03;16.37;;;13.83;;
30080;SDS011;16902;50.816;12.828;2023-04-06T23:12:06;18.13;;;13.30;;
30080;SDS011;16902;50.816;12.828;2023-04-06T23:17:08;20.17;;;14.63;;
30080;SDS011;16902;50.816;12.828;2023-04-06T23:22:10;17.70;;;13.40;;
30080;SDS011;16902;50.816;12.828;2023-04-06T23:27:12;14.83;;;12.57;;
30080;SDS011;16902;50.816;12.828;2023-04-06T23:32:14;17.13;;;12.97;;
30080;SDS011;16902;50.816;12.828;2023-04-06T23:37:16;20.43;;;13.27;;
30080;SDS011;16902;50.816;12.828;2023-04-06T23:42:18;18.83;;;13.53;;
30080;SDS011;16902;50.816;12.828;2023-04-06T23:47:19;18.77;;;14.17;;
30080;SDS011;16902;50.816;12.828;2023-04-06T23:52:21;16.63;;;14.03;;
30080;SDS011;16902;50.816;12.828;2023-04-06T23:57:23;16.20;;;13.50;;
